Abramo, Argentina
Current Conditions -  °F | °C
As of 10:00 PM on Tuesday 25 Nov 2014 (Local Time) from SAZN Reporting Station
Clear Clear  
Wind Chill: 63°   Ceiling: Unl
Heat Index: 63°   Visibility: 6mi
Dew Point: 41°   Wind: 3mph
Humidity: 45%   Direction: 290°WNW
Pressure: 29.85"   Gusts: NA
Location:  37.83°S, 63.94°W
Report Text: SAZN 260100Z 29003KT CAVOK 17/05 Q1011
Loading
Personal Weather Stations






























Interactive Weather Map New forecast layout! Learn more

10-Day Weather Forecast

Advertisements
Track Severe Weather on mobile